sensor_id;sensor_type;location;lat;lon;timestamp;temperature;humidity
42683;DHT22;28293;50.930;3.464;2024-03-02T00:02:12;6.50;95.70
42683;DHT22;28293;50.930;3.464;2024-03-02T00:04:37;6.60;95.70
42683;DHT22;28293;50.930;3.464;2024-03-02T00:07:03;6.50;95.70
42683;DHT22;28293;50.930;3.464;2024-03-02T00:09:29;6.50;95.70
42683;DHT22;28293;50.930;3.464;2024-03-02T00:11:55;6.50;95.70
42683;DHT22;28293;50.930;3.464;2024-03-02T00:14:22;6.50;95.60
42683;DHT22;28293;50.930;3.464;2024-03-02T00:16:50;6.50;95.70
42683;DHT22;28293;50.930;3.464;2024-03-02T00:19:17;6.50;95.70
42683;DHT22;28293;50.930;3.464;2024-03-02T00:21:43;6.50;95.70
42683;DHT22;28293;50.930;3.464;2024-03-02T00:24:20;6.60;95.70
42683;DHT22;28293;50.930;3.464;2024-03-02T00:26:46;6.60;95.60
42683;DHT22;28293;50.930;3.464;2024-03-02T00:29:15;6.60;95.60
42683;DHT22;28293;50.930;3.464;2024-03-02T00:31:41;6.60;95.50
42683;DHT22;28293;50.930;3.464;2024-03-02T00:34:07;6.60;95.30
42683;DHT22;28293;50.930;3.464;2024-03-02T00:36:33;6.60;95.20
42683;DHT22;28293;50.930;3.464;2024-03-02T00:38:59;6.60;95.10
42683;DHT22;28293;50.930;3.464;2024-03-02T00:41:30;6.50;95.20
42683;DHT22;28293;50.930;3.464;2024-03-02T00:44:03;6.50;95.20
42683;DHT22;28293;50.930;3.464;2024-03-02T00:46:34;6.40;95.30
42683;DHT22;28293;50.930;3.464;2024-03-02T00:49:04;6.40;95.30
42683;DHT22;28293;50.930;3.464;2024-03-02T00:51:31;6.40;95.30
42683;DHT22;28293;50.930;3.464;2024-03-02T00:54:02;6.30;95.40
42683;DHT22;28293;50.930;3.464;2024-03-02T00:56:30;6.30;95.50
42683;DHT22;28293;50.930;3.464;2024-03-02T00:58:56;6.30;95.40
42683;DHT22;28293;50.930;3.464;2024-03-02T01:01:22;6.20;95.40
42683;DHT22;28293;50.930;3.464;2024-03-02T01:03:49;6.20;95.40
42683;DHT22;28293;50.930;3.464;2024-03-02T01:06:15;6.20;95.50
42683;DHT22;28293;50.930;3.464;2024-03-02T01:08:41;6.20;95.40
42683;DHT22;28293;50.930;3.464;2024-03-02T01:11:07;6.20;95.50
42683;DHT22;28293;50.930;3.464;2024-03-02T01:13:33;6.10;95.50
42683;DHT22;28293;50.930;3.464;2024-03-02T01:15:58;6.10;95.50
42683;DHT22;28293;50.930;3.464;2024-03-02T01:18:25;6.10;95.40
42683;DHT22;28293;50.930;3.464;2024-03-02T01:20:50;6.10;95.50
42683;DHT22;28293;50.930;3.464;2024-03-02T01:23:22;6.10;95.50
42683;DHT22;28293;50.930;3.464;2024-03-02T01:25:47;6.10;95.50
42683;DHT22;28293;50.930;3.464;2024-03-02T01:28:14;6.10;95.40
42683;DHT22;28293;50.930;3.464;2024-03-02T01:30:40;6.10;95.40
42683;DHT22;28293;50.930;3.464;2024-03-02T01:33:05;6.10;95.40
42683;DHT22;28293;50.930;3.464;2024-03-02T01:35:32;6.10;95.40
42683;DHT22;28293;50.930;3.464;2024-03-02T01:37:58;6.10;95.40
42683;DHT22;28293;50.930;3.464;2024-03-02T01:40:24;6.00;95.40
42683;DHT22;28293;50.930;3.464;2024-03-02T01:42:55;6.10;95.40
42683;DHT22;28293;50.930;3.464;2024-03-02T01:45:23;6.00;95.40
42683;DHT22;28293;50.930;3.464;2024-03-02T01:47:49;6.10;95.50
42683;DHT22;28293;50.930;3.464;2024-03-02T01:50:16;6.10;95.40
42683;DHT22;28293;50.930;3.464;2024-03-02T01:52:42;6.10;95.30
42683;DHT22;28293;50.930;3.464;2024-03-02T01:55:09;6.00;95.30
42683;DHT22;28293;50.930;3.464;2024-03-02T01:57:35;6.00;95.30
42683;DHT22;28293;50.930;3.464;2024-03-02T02:00:01;6.00;95.20
42683;DHT22;28293;50.930;3.464;2024-03-02T02:02:27;5.90;95.40
42683;DHT22;28293;50.930;3.464;2024-03-02T02:04:52;6.00;95.40
42683;DHT22;28293;50.930;3.464;2024-03-02T02:07:18;5.90;95.40
42683;DHT22;28293;50.930;3.464;2024-03-02T02:09:44;6.00;95.40
42683;DHT22;28293;50.930;3.464;2024-03-02T02:12:10;5.90;95.40
42683;DHT22;28293;50.930;3.464;2024-03-02T02:14:36;5.90;95.50
42683;DHT22;28293;50.930;3.464;2024-03-02T02:17:02;5.90;95.40
42683;DHT22;28293;50.930;3.464;2024-03-02T02:19:28;5.80;95.40
42683;DHT22;28293;50.930;3.464;2024-03-02T02:21:54;5.80;95.50
42683;DHT22;28293;50.930;3.464;2024-03-02T02:24:20;5.80;95.50
42683;DHT22;28293;50.930;3.464;2024-03-02T02:26:45;5.80;95.40
42683;DHT22;28293;50.930;3.464;2024-03-02T02:29:11;5.80;95.50
42683;DHT22;28293;50.930;3.464;2024-03-02T02:31:41;5.80;95.40
42683;DHT22;28293;50.930;3.464;2024-03-02T02:34:07;5.70;95.40
42683;DHT22;28293;50.930;3.464;2024-03-02T02:36:33;5.80;95.50
42683;DHT22;28293;50.930;3.464;2024-03-02T02:39:03;5.70;95.50
42683;DHT22;28293;50.930;3.464;2024-03-02T02:41:30;5.70;95.60
42683;DHT22;28293;50.930;3.464;2024-03-02T02:43:56;5.80;95.60
42683;DHT22;28293;50.930;3.464;2024-03-02T02:46:22;5.80;95.60
42683;DHT22;28293;50.930;3.464;2024-03-02T02:48:47;5.80;95.50
42683;DHT22;28293;50.930;3.464;2024-03-02T02:51:13;5.90;95.40
42683;DHT22;28293;50.930;3.464;2024-03-02T02:53:39;5.90;95.30
42683;DHT22;28293;50.930;3.464;2024-03-02T02:56:07;5.80;95.20
42683;DHT22;28293;50.930;3.464;2024-03-02T02:58:33;5.80;95.00
42683;DHT22;28293;50.930;3.464;2024-03-02T03:00:58;5.80;95.10
42683;DHT22;28293;50.930;3.464;2024-03-02T03:03:24;5.80;95.00
42683;DHT22;28293;50.930;3.464;2024-03-02T03:05:49;5.80;94.90
42683;DHT22;28293;50.930;3.464;2024-03-02T03:08:15;5.80;94.90
42683;DHT22;28293;50.930;3.464;2024-03-02T03:10:44;5.80;94.90
42683;DHT22;28293;50.930;3.464;2024-03-02T03:13:10;5.80;94.90
42683;DHT22;28293;50.930;3.464;2024-03-02T03:15:36;5.70;94.90
42683;DHT22;28293;50.930;3.464;2024-03-02T03:18:02;5.70;95.00
42683;DHT22;28293;50.930;3.464;2024-03-02T03:20:29;5.70;94.90
42683;DHT22;28293;50.930;3.464;2024-03-02T03:22:55;5.70;94.90
42683;DHT22;28293;50.930;3.464;2024-03-02T03:25:21;5.60;94.90
42683;DHT22;28293;50.930;3.464;2024-03-02T03:27:46;5.60;95.00
42683;DHT22;28293;50.930;3.464;2024-03-02T03:30:12;5.60;95.00
42683;DHT22;28293;50.930;3.464;2024-03-02T03:32:38;5.70;95.00
42683;DHT22;28293;50.930;3.464;2024-03-02T03:35:04;5.60;95.00
42683;DHT22;28293;50.930;3.464;2024-03-02T03:37:30;5.60;94.90
42683;DHT22;28293;50.930;3.464;2024-03-02T03:40:04;5.60;94.90
42683;DHT22;28293;50.930;3.464;2024-03-02T03:42:35;5.60;94.90
42683;DHT22;28293;50.930;3.464;2024-03-02T03:45:01;5.60;94.80
42683;DHT22;28293;50.930;3.464;2024-03-02T03:47:27;5.60;94.80
42683;DHT22;28293;50.930;3.464;2024-03-02T03:49:52;5.60;94.80
42683;DHT22;28293;50.930;3.464;2024-03-02T03:52:18;5.60;94.60
42683;DHT22;28293;50.930;3.464;2024-03-02T03:54:44;5.60;94.50
42683;DHT22;28293;50.930;3.464;2024-03-02T03:57:10;5.60;94.40
42683;DHT22;28293;50.930;3.464;2024-03-02T03:59:35;5.60;94.40
42683;DHT22;28293;50.930;3.464;2024-03-02T04:02:03;5.60;94.30
42683;DHT22;28293;50.930;3.464;2024-03-02T04:04:28;5.60;94.40
42683;DHT22;28293;50.930;3.464;2024-03-02T04:06:54;5.60;94.30
42683;DHT22;28293;50.930;3.464;2024-03-02T04:09:20;5.60;94.30
42683;DHT22;28293;50.930;3.464;2024-03-02T04:11:45;5.60;94.30
42683;DHT22;28293;50.930;3.464;2024-03-02T04:14:11;5.60;94.30
42683;DHT22;28293;50.930;3.464;2024-03-02T04:16:38;5.60;94.30
42683;DHT22;28293;50.930;3.464;2024-03-02T04:19:04;5.60;94.20
42683;DHT22;28293;50.930;3.464;2024-03-02T04:21:30;5.60;94.30
42683;DHT22;28293;50.930;3.464;2024-03-02T04:23:55;5.60;94.30
42683;DHT22;28293;50.930;3.464;2024-03-02T04:26:24;5.60;94.30
42683;DHT22;28293;50.930;3.464;2024-03-02T04:28:51;5.60;94.30
42683;DHT22;28293;50.930;3.464;2024-03-02T04:31:17;5.60;94.30
42683;DHT22;28293;50.930;3.464;2024-03-02T04:33:42;5.60;94.30
42683;DHT22;28293;50.930;3.464;2024-03-02T04:36:08;5.60;94.50
42683;DHT22;28293;50.930;3.464;2024-03-02T04:38:38;5.50;94.50
42683;DHT22;28293;50.930;3.464;2024-03-02T04:41:07;5.50;94.60
42683;DHT22;28293;50.930;3.464;2024-03-02T04:43:34;5.50;94.70
42683;DHT22;28293;50.930;3.464;2024-03-02T04:46:00;5.50;94.70
42683;DHT22;28293;50.930;3.464;2024-03-02T04:48:26;5.50;94.70
42683;DHT22;28293;50.930;3.464;2024-03-02T04:50:52;5.50;94.70
42683;DHT22;28293;50.930;3.464;2024-03-02T04:53:17;5.50;94.60
42683;DHT22;28293;50.930;3.464;2024-03-02T04:55:43;5.50;94.80
42683;DHT22;28293;50.930;3.464;2024-03-02T04:58:09;5.40;94.80
42683;DHT22;28293;50.930;3.464;2024-03-02T05:00:35;5.40;94.70
42683;DHT22;28293;50.930;3.464;2024-03-02T05:03:00;5.40;94.80
42683;DHT22;28293;50.930;3.464;2024-03-02T05:05:26;5.40;94.90
42683;DHT22;28293;50.930;3.464;2024-03-02T05:07:52;5.40;94.90
42683;DHT22;28293;50.930;3.464;2024-03-02T05:10:18;5.40;94.80
42683;DHT22;28293;50.930;3.464;2024-03-02T05:12:43;5.30;95.00
42683;DHT22;28293;50.930;3.464;2024-03-02T05:15:13;5.30;95.00
42683;DHT22;28293;50.930;3.464;2024-03-02T05:17:40;5.30;95.10
42683;DHT22;28293;50.930;3.464;2024-03-02T05:20:09;5.30;95.10
42683;DHT22;28293;50.930;3.464;2024-03-02T05:22:35;5.30;95.00
42683;DHT22;28293;50.930;3.464;2024-03-02T05:25:02;5.30;95.20
42683;DHT22;28293;50.930;3.464;2024-03-02T05:27:27;5.30;95.10
42683;DHT22;28293;50.930;3.464;2024-03-02T05:29:53;5.30;95.00
42683;DHT22;28293;50.930;3.464;2024-03-02T05:32:19;5.20;95.10
42683;DHT22;28293;50.930;3.464;2024-03-02T05:34:44;5.20;95.10
42683;DHT22;28293;50.930;3.464;2024-03-02T05:37:10;5.20;95.10
42683;DHT22;28293;50.930;3.464;2024-03-02T05:39:36;5.20;95.10
42683;DHT22;28293;50.930;3.464;2024-03-02T05:42:02;5.20;95.10
42683;DHT22;28293;50.930;3.464;2024-03-02T05:44:28;5.10;95.20
42683;DHT22;28293;50.930;3.464;2024-03-02T05:46:54;5.20;95.10
42683;DHT22;28293;50.930;3.464;2024-03-02T05:49:20;5.20;95.20
42683;DHT22;28293;50.930;3.464;2024-03-02T05:51:45;5.20;95.00
42683;DHT22;28293;50.930;3.464;2024-03-02T05:54:11;5.20;94.90
42683;DHT22;28293;50.930;3.464;2024-03-02T05:56:36;5.20;94.90
42683;DHT22;28293;50.930;3.464;2024-03-02T05:59:02;5.20;94.90
42683;DHT22;28293;50.930;3.464;2024-03-02T06:01:47;5.20;94.90
42683;DHT22;28293;50.930;3.464;2024-03-02T06:04:14;5.10;94.90
42683;DHT22;28293;50.930;3.464;2024-03-02T06:06:42;5.10;95.00
42683;DHT22;28293;50.930;3.464;2024-03-02T06:09:08;5.10;95.00
42683;DHT22;28293;50.930;3.464;2024-03-02T06:11:38;5.10;95.00
42683;DHT22;28293;50.930;3.464;2024-03-02T06:14:05;5.10;95.00
42683;DHT22;28293;50.930;3.464;2024-03-02T06:16:32;5.10;95.00
42683;DHT22;28293;50.930;3.464;2024-03-02T06:18:58;5.10;95.10
42683;DHT22;28293;50.930;3.464;2024-03-02T06:21:24;5.10;95.10
42683;DHT22;28293;50.930;3.464;2024-03-02T06:23:50;5.10;95.10
42683;DHT22;28293;50.930;3.464;2024-03-02T06:26:16;5.10;95.10
42683;DHT22;28293;50.930;3.464;2024-03-02T06:28:42;5.20;95.10
42683;DHT22;28293;50.930;3.464;2024-03-02T06:31:08;5.10;95.10
42683;DHT22;28293;50.930;3.464;2024-03-02T06:33:34;5.20;95.10
42683;DHT22;28293;50.930;3.464;2024-03-02T06:36:00;5.10;95.10
42683;DHT22;28293;50.930;3.464;2024-03-02T06:38:26;5.10;95.00
42683;DHT22;28293;50.930;3.464;2024-03-02T06:40:52;5.20;95.10
42683;DHT22;28293;50.930;3.464;2024-03-02T06:43:19;5.20;95.20
42683;DHT22;28293;50.930;3.464;2024-03-02T06:45:49;5.20;95.00
42683;DHT22;28293;50.930;3.464;2024-03-02T06:48:14;5.20;95.00
42683;DHT22;28293;50.930;3.464;2024-03-02T06:50:44;5.20;95.10
42683;DHT22;28293;50.930;3.464;2024-03-02T06:53:09;5.20;95.00
42683;DHT22;28293;50.930;3.464;2024-03-02T06:55:35;5.30;95.00
42683;DHT22;28293;50.930;3.464;2024-03-02T06:58:00;5.30;95.00
42683;DHT22;28293;50.930;3.464;2024-03-02T07:00:26;5.30;95.00
42683;DHT22;28293;50.930;3.464;2024-03-02T07:02:52;5.40;95.00
42683;DHT22;28293;50.930;3.464;2024-03-02T07:05:17;5.40;94.90
42683;DHT22;28293;50.930;3.464;2024-03-02T07:07:43;5.50;94.70
42683;DHT22;28293;50.930;3.464;2024-03-02T07:10:09;5.60;94.60
42683;DHT22;28293;50.930;3.464;2024-03-02T07:12:34;5.60;94.50
42683;DHT22;28293;50.930;3.464;2024-03-02T07:15:00;5.60;94.50
42683;DHT22;28293;50.930;3.464;2024-03-02T07:17:29;5.60;94.40
42683;DHT22;28293;50.930;3.464;2024-03-02T07:19:55;5.70;94.40
42683;DHT22;28293;50.930;3.464;2024-03-02T07:22:21;5.70;94.20
42683;DHT22;28293;50.930;3.464;2024-03-02T07:24:47;5.80;94.10
42683;DHT22;28293;50.930;3.464;2024-03-02T07:27:13;5.80;94.00
42683;DHT22;28293;50.930;3.464;2024-03-02T07:29:40;5.90;94.00
42683;DHT22;28293;50.930;3.464;2024-03-02T07:32:06;5.90;93.90
42683;DHT22;28293;50.930;3.464;2024-03-02T07:34:32;6.00;93.70
42683;DHT22;28293;50.930;3.464;2024-03-02T07:36:58;6.10;93.60
42683;DHT22;28293;50.930;3.464;2024-03-02T07:39:24;6.10;93.30
42683;DHT22;28293;50.930;3.464;2024-03-02T07:41:49;6.10;93.30
42683;DHT22;28293;50.930;3.464;2024-03-02T07:44:15;6.10;93.20
42683;DHT22;28293;50.930;3.464;2024-03-02T07:46:50;6.20;93.20
42683;DHT22;28293;50.930;3.464;2024-03-02T07:49:16;6.20;93.10
42683;DHT22;28293;50.930;3.464;2024-03-02T07:51:42;6.20;93.00
42683;DHT22;28293;50.930;3.464;2024-03-02T07:54:07;6.20;93.00
42683;DHT22;28293;50.930;3.464;2024-03-02T07:56:34;6.30;92.90
42683;DHT22;28293;50.930;3.464;2024-03-02T07:58:59;6.30;92.60
42683;DHT22;28293;50.930;3.464;2024-03-02T08:01:32;6.40;92.50
42683;DHT22;28293;50.930;3.464;2024-03-02T08:04:02;6.50;92.30
42683;DHT22;28293;50.930;3.464;2024-03-02T08:06:29;6.60;92.10
42683;DHT22;28293;50.930;3.464;2024-03-02T08:08:59;6.60;91.80
42683;DHT22;28293;50.930;3.464;2024-03-02T08:11:25;6.70;91.40
42683;DHT22;28293;50.930;3.464;2024-03-02T08:13:50;6.80;91.40
42683;DHT22;28293;50.930;3.464;2024-03-02T08:16:18;6.90;91.10
42683;DHT22;28293;50.930;3.464;2024-03-02T08:18:50;7.00;91.10
42683;DHT22;28293;50.930;3.464;2024-03-02T08:21:16;7.10;90.90
42683;DHT22;28293;50.930;3.464;2024-03-02T08:23:43;7.20;90.30
42683;DHT22;28293;50.930;3.464;2024-03-02T08:26:09;7.30;90.20
42683;DHT22;28293;50.930;3.464;2024-03-02T08:28:35;7.40;89.90
42683;DHT22;28293;50.930;3.464;2024-03-02T08:31:03;7.50;89.30
42683;DHT22;28293;50.930;3.464;2024-03-02T08:33:29;7.60;88.80
42683;DHT22;28293;50.930;3.464;2024-03-02T08:35:55;7.70;88.40
42683;DHT22;28293;50.930;3.464;2024-03-02T08:38:21;7.80;88.00
42683;DHT22;28293;50.930;3.464;2024-03-02T08:40:46;7.70;87.90
42683;DHT22;28293;50.930;3.464;2024-03-02T08:43:12;7.70;87.90
42683;DHT22;28293;50.930;3.464;2024-03-02T08:45:38;7.60;88.30
42683;DHT22;28293;50.930;3.464;2024-03-02T08:48:06;7.50;88.50
42683;DHT22;28293;50.930;3.464;2024-03-02T08:50:33;7.50;88.60
42683;DHT22;28293;50.930;3.464;2024-03-02T08:52:59;7.50;88.60
42683;DHT22;28293;50.930;3.464;2024-03-02T08:55:25;7.60;88.80
42683;DHT22;28293;50.930;3.464;2024-03-02T08:57:50;7.60;88.40
42683;DHT22;28293;50.930;3.464;2024-03-02T09:00:16;7.70;88.20
42683;DHT22;28293;50.930;3.464;2024-03-02T09:02:44;7.90;88.00
42683;DHT22;28293;50.930;3.464;2024-03-02T09:05:10;8.00;87.80
42683;DHT22;28293;50.930;3.464;2024-03-02T09:07:35;8.10;87.70
42683;DHT22;28293;50.930;3.464;2024-03-02T09:10:01;8.10;87.40
42683;DHT22;28293;50.930;3.464;2024-03-02T09:12:26;8.20;87.60
42683;DHT22;28293;50.930;3.464;2024-03-02T09:14:52;8.30;87.10
42683;DHT22;28293;50.930;3.464;2024-03-02T09:17:18;8.50;87.00
42683;DHT22;28293;50.930;3.464;2024-03-02T09:19:43;8.50;86.60
42683;DHT22;28293;50.930;3.464;2024-03-02T09:22:09;8.50;86.70
42683;DHT22;28293;50.930;3.464;2024-03-02T09:24:35;8.40;86.30
42683;DHT22;28293;50.930;3.464;2024-03-02T09:27:00;8.50;86.60
42683;DHT22;28293;50.930;3.464;2024-03-02T09:29:26;8.70;86.60
42683;DHT22;28293;50.930;3.464;2024-03-02T09:31:52;8.90;86.20
42683;DHT22;28293;50.930;3.464;2024-03-02T09:34:17;9.10;86.30
42683;DHT22;28293;50.930;3.464;2024-03-02T09:36:43;9.40;85.50
42683;DHT22;28293;50.930;3.464;2024-03-02T09:39:09;9.80;84.00
42683;DHT22;28293;50.930;3.464;2024-03-02T09:41:36;10.10;84.70
42683;DHT22;28293;50.930;3.464;2024-03-02T09:44:03;10.10;83.10
42683;DHT22;28293;50.930;3.464;2024-03-02T09:46:29;10.30;82.30
42683;DHT22;28293;50.930;3.464;2024-03-02T09:48:55;10.30;83.00
42683;DHT22;28293;50.930;3.464;2024-03-02T09:51:20;10.10;82.40
42683;DHT22;28293;50.930;3.464;2024-03-02T09:53:47;10.30;82.60
42683;DHT22;28293;50.930;3.464;2024-03-02T09:56:13;10.40;82.60
42683;DHT22;28293;50.930;3.464;2024-03-02T09:58:39;10.50;82.40
42683;DHT22;28293;50.930;3.464;2024-03-02T10:01:08;10.60;82.60
42683;DHT22;28293;50.930;3.464;2024-03-02T10:03:36;10.60;82.30
42683;DHT22;28293;50.930;3.464;2024-03-02T10:08:47;10.70;81.20
42683;DHT22;28293;50.930;3.464;2024-03-02T10:14:15;10.70;82.20
42683;DHT22;28293;50.930;3.464;2024-03-02T10:16:42;10.80;81.70
42683;DHT22;28293;50.930;3.464;2024-03-02T10:19:26;11.00;81.50
42683;DHT22;28293;50.930;3.464;2024-03-02T10:21:53;10.80;81.20
42683;DHT22;28293;50.930;3.464;2024-03-02T10:24:20;10.80;81.30
42683;DHT22;28293;50.930;3.464;2024-03-02T10:26:46;10.50;81.50
42683;DHT22;28293;50.930;3.464;2024-03-02T10:29:12;10.40;82.30
42683;DHT22;28293;50.930;3.464;2024-03-02T10:31:39;10.30;82.10
42683;DHT22;28293;50.930;3.464;2024-03-02T10:34:06;10.10;82.40
42683;DHT22;28293;50.930;3.464;2024-03-02T10:36:36;10.00;82.80
42683;DHT22;28293;50.930;3.464;2024-03-02T10:39:05;10.10;83.10
42683;DHT22;28293;50.930;3.464;2024-03-02T10:41:33;10.10;82.80
42683;DHT22;28293;50.930;3.464;2024-03-02T10:44:05;10.20;83.70
42683;DHT22;28293;50.930;3.464;2024-03-02T10:46:32;10.10;83.20
42683;DHT22;28293;50.930;3.464;2024-03-02T10:48:59;10.20;83.30
42683;DHT22;28293;50.930;3.464;2024-03-02T10:51:26;10.30;83.20
42683;DHT22;28293;50.930;3.464;2024-03-02T10:53:53;10.30;83.10
42683;DHT22;28293;50.930;3.464;2024-03-02T10:56:28;10.20;83.00
42683;DHT22;28293;50.930;3.464;2024-03-02T11:01:50;10.10;83.10
42683;DHT22;28293;50.930;3.464;2024-03-02T11:04:17;10.10;82.90
42683;DHT22;28293;50.930;3.464;2024-03-02T11:06:49;10.20;82.70
42683;DHT22;28293;50.930;3.464;2024-03-02T11:09:20;10.20;83.20
42683;DHT22;28293;50.930;3.464;2024-03-02T11:11:52;10.20;82.80
42683;DHT22;28293;50.930;3.464;2024-03-02T11:14:24;10.50;83.20
42683;DHT22;28293;50.930;3.464;2024-03-02T11:16:51;10.50;82.60
42683;DHT22;28293;50.930;3.464;2024-03-02T11:19:17;10.60;82.50
42683;DHT22;28293;50.930;3.464;2024-03-02T11:21:43;10.50;81.90
42683;DHT22;28293;50.930;3.464;2024-03-02T11:26:50;10.60;81.60
42683;DHT22;28293;50.930;3.464;2024-03-02T11:32:13;10.50;82.50
42683;DHT22;28293;50.930;3.464;2024-03-02T11:34:44;10.60;82.60
42683;DHT22;28293;50.930;3.464;2024-03-02T11:37:16;10.80;82.30
42683;DHT22;28293;50.930;3.464;2024-03-02T11:39:43;10.90;82.70
42683;DHT22;28293;50.930;3.464;2024-03-02T11:42:11;11.10;82.60
42683;DHT22;28293;50.930;3.464;2024-03-02T11:44:38;11.10;82.50
42683;DHT22;28293;50.930;3.464;2024-03-02T11:47:08;11.00;83.70
42683;DHT22;28293;50.930;3.464;2024-03-02T11:49:54;11.10;84.30
42683;DHT22;28293;50.930;3.464;2024-03-02T11:52:20;11.10;83.80
42683;DHT22;28293;50.930;3.464;2024-03-02T11:54:48;11.00;83.80
42683;DHT22;28293;50.930;3.464;2024-03-02T11:57:22;11.10;84.30
42683;DHT22;28293;50.930;3.464;2024-03-02T11:59:48;11.20;83.90
42683;DHT22;28293;50.930;3.464;2024-03-02T12:02:21;11.10;83.40
42683;DHT22;28293;50.930;3.464;2024-03-02T12:04:48;11.10;83.70
42683;DHT22;28293;50.930;3.464;2024-03-02T12:07:20;11.20;83.80
42683;DHT22;28293;50.930;3.464;2024-03-02T12:09:59;11.20;83.40
42683;DHT22;28293;50.930;3.464;2024-03-02T12:12:26;11.10;83.50
42683;DHT22;28293;50.930;3.464;2024-03-02T12:14:52;10.90;83.50
42683;DHT22;28293;50.930;3.464;2024-03-02T12:17:21;10.90;84.50
42683;DHT22;28293;50.930;3.464;2024-03-02T12:19:47;11.00;85.00
42683;DHT22;28293;50.930;3.464;2024-03-02T12:22:13;10.90;85.20
42683;DHT22;28293;50.930;3.464;2024-03-02T12:24:38;10.70;85.20
42683;DHT22;28293;50.930;3.464;2024-03-02T12:27:05;10.60;85.80
42683;DHT22;28293;50.930;3.464;2024-03-02T12:29:31;10.60;85.80
42683;DHT22;28293;50.930;3.464;2024-03-02T12:31:57;10.50;86.40
42683;DHT22;28293;50.930;3.464;2024-03-02T12:34:22;10.50;87.00
42683;DHT22;28293;50.930;3.464;2024-03-02T12:36:49;10.40;87.30
42683;DHT22;28293;50.930;3.464;2024-03-02T12:39:21;10.40;87.50
42683;DHT22;28293;50.930;3.464;2024-03-02T12:41:49;10.30;87.80
42683;DHT22;28293;50.930;3.464;2024-03-02T12:44:17;10.30;88.20
42683;DHT22;28293;50.930;3.464;2024-03-02T12:46:43;10.30;88.20
42683;DHT22;28293;50.930;3.464;2024-03-02T12:49:11;10.30;88.40
42683;DHT22;28293;50.930;3.464;2024-03-02T12:51:38;10.30;88.50
42683;DHT22;28293;50.930;3.464;2024-03-02T12:54:06;10.20;88.60
42683;DHT22;28293;50.930;3.464;2024-03-02T12:56:32;10.30;88.90
42683;DHT22;28293;50.930;3.464;2024-03-02T12:58:59;10.30;89.00
42683;DHT22;28293;50.930;3.464;2024-03-02T13:01:25;10.20;89.10
42683;DHT22;28293;50.930;3.464;2024-03-02T13:03:52;10.30;89.50
42683;DHT22;28293;50.930;3.464;2024-03-02T13:06:18;10.20;89.50
42683;DHT22;28293;50.930;3.464;2024-03-02T13:08:45;10.20;89.90
42683;DHT22;28293;50.930;3.464;2024-03-02T13:11:12;10.20;90.20
42683;DHT22;28293;50.930;3.464;2024-03-02T13:13:39;10.10;90.50
42683;DHT22;28293;50.930;3.464;2024-03-02T13:16:11;10.20;90.70
42683;DHT22;28293;50.930;3.464;2024-03-02T13:18:41;10.20;90.70
42683;DHT22;28293;50.930;3.464;2024-03-02T13:21:10;10.30;91.00
42683;DHT22;28293;50.930;3.464;2024-03-02T13:23:35;10.50;90.70
42683;DHT22;28293;50.930;3.464;2024-03-02T13:26:02;10.40;90.30
42683;DHT22;28293;50.930;3.464;2024-03-02T13:28:28;10.40;90.40
42683;DHT22;28293;50.930;3.464;2024-03-02T13:30:53;10.40;90.80
42683;DHT22;28293;50.930;3.464;2024-03-02T13:33:19;10.50;90.60
42683;DHT22;28293;50.930;3.464;2024-03-02T13:35:49;10.50;90.50
42683;DHT22;28293;50.930;3.464;2024-03-02T13:38:19;10.60;90.70
42683;DHT22;28293;50.930;3.464;2024-03-02T13:40:45;10.60;90.00
42683;DHT22;28293;50.930;3.464;2024-03-02T13:43:11;10.80;90.00
42683;DHT22;28293;50.930;3.464;2024-03-02T13:45:38;10.80;89.40
42683;DHT22;28293;50.930;3.464;2024-03-02T13:48:03;11.00;89.30
42683;DHT22;28293;50.930;3.464;2024-03-02T13:50:29;11.00;88.80
42683;DHT22;28293;50.930;3.464;2024-03-02T13:52:55;11.10;88.80
42683;DHT22;28293;50.930;3.464;2024-03-02T13:55:22;11.20;88.90
42683;DHT22;28293;50.930;3.464;2024-03-02T13:57:48;11.30;88.70
42683;DHT22;28293;50.930;3.464;2024-03-02T14:00:16;11.40;88.50
42683;DHT22;28293;50.930;3.464;2024-03-02T14:02:43;11.40;88.30
42683;DHT22;28293;50.930;3.464;2024-03-02T14:05:08;11.40;88.20
42683;DHT22;28293;50.930;3.464;2024-03-02T14:07:41;11.40;88.50
42683;DHT22;28293;50.930;3.464;2024-03-02T14:10:07;11.30;88.20
42683;DHT22;28293;50.930;3.464;2024-03-02T14:12:33;11.20;88.10
42683;DHT22;28293;50.930;3.464;2024-03-02T14:14:58;11.10;88.40
42683;DHT22;28293;50.930;3.464;2024-03-02T14:17:25;11.10;88.80
42683;DHT22;28293;50.930;3.464;2024-03-02T14:19:50;11.00;88.70
42683;DHT22;28293;50.930;3.464;2024-03-02T14:22:19;10.90;88.80
42683;DHT22;28293;50.930;3.464;2024-03-02T14:24:45;10.80;89.10
42683;DHT22;28293;50.930;3.464;2024-03-02T14:27:10;10.80;89.60
42683;DHT22;28293;50.930;3.464;2024-03-02T14:29:36;10.80;89.80
42683;DHT22;28293;50.930;3.464;2024-03-02T14:32:03;10.80;89.80
42683;DHT22;28293;50.930;3.464;2024-03-02T14:34:29;10.80;89.80
42683;DHT22;28293;50.930;3.464;2024-03-02T14:36:55;10.90;89.50
42683;DHT22;28293;50.930;3.464;2024-03-02T14:39:21;10.90;89.70
42683;DHT22;28293;50.930;3.464;2024-03-02T14:41:47;10.90;89.60
42683;DHT22;28293;50.930;3.464;2024-03-02T14:44:14;11.10;89.40
42683;DHT22;28293;50.930;3.464;2024-03-02T14:46:40;11.10;89.60
42683;DHT22;28293;50.930;3.464;2024-03-02T14:49:06;11.10;89.50
42683;DHT22;28293;50.930;3.464;2024-03-02T14:51:33;11.10;89.50
42683;DHT22;28293;50.930;3.464;2024-03-02T14:53:58;11.10;89.40
42683;DHT22;28293;50.930;3.464;2024-03-02T14:56:24;11.10;89.60
42683;DHT22;28293;50.930;3.464;2024-03-02T14:58:50;11.20;89.10
42683;DHT22;28293;50.930;3.464;2024-03-02T15:01:16;11.10;89.10
42683;DHT22;28293;50.930;3.464;2024-03-02T15:03:43;11.10;89.00
42683;DHT22;28293;50.930;3.464;2024-03-02T15:06:09;11.10;88.90
42683;DHT22;28293;50.930;3.464;2024-03-02T15:08:35;11.20;89.20
42683;DHT22;28293;50.930;3.464;2024-03-02T15:11:01;11.20;88.70
42683;DHT22;28293;50.930;3.464;2024-03-02T15:13:29;11.20;88.40
42683;DHT22;28293;50.930;3.464;2024-03-02T15:15:55;11.20;88.20
42683;DHT22;28293;50.930;3.464;2024-03-02T15:18:20;11.30;88.20
42683;DHT22;28293;50.930;3.464;2024-03-02T15:20:46;11.30;88.10
42683;DHT22;28293;50.930;3.464;2024-03-02T15:23:11;11.30;88.30
42683;DHT22;28293;50.930;3.464;2024-03-02T15:25:37;11.30;88.20
42683;DHT22;28293;50.930;3.464;2024-03-02T15:28:03;11.30;87.60
42683;DHT22;28293;50.930;3.464;2024-03-02T15:30:28;11.20;87.00
42683;DHT22;28293;50.930;3.464;2024-03-02T15:32:54;11.30;87.30
42683;DHT22;28293;50.930;3.464;2024-03-02T15:35:20;11.30;87.50
42683;DHT22;28293;50.930;3.464;2024-03-02T15:37:45;11.30;87.10
42683;DHT22;28293;50.930;3.464;2024-03-02T15:40:11;11.30;87.20
42683;DHT22;28293;50.930;3.464;2024-03-02T15:42:36;11.20;87.30
42683;DHT22;28293;50.930;3.464;2024-03-02T15:45:02;11.30;86.90
42683;DHT22;28293;50.930;3.464;2024-03-02T15:47:28;11.20;86.80
42683;DHT22;28293;50.930;3.464;2024-03-02T15:49:54;11.20;86.70
42683;DHT22;28293;50.930;3.464;2024-03-02T15:52:20;11.10;86.80